Time;durP1;ratioP1;P1;durP2;ratioP2;P2;SDS_P1;SDS_P2;PMS_P1;PMS_P2;Temp;Humidity;BMP_temperature;BMP_pressure;BME280_temperature;BME280_humidity;BME280_pressure;Samples;Min_cycle;Max_cycle;Signal;HPM_P1;HPM_P2
2023/07/21 00:01:41;;;;;;;3.47;2.40;;;;;;;17.85;60.00;97665.63;5096046;28;20691;-91
2023/07/21 00:04:07;;;;;;;2.73;2.20;;;;;;;17.81;59.80;97661.59;5096095;28;20724;-91
2023/07/21 00:06:34;;;;;;;2.23;1.87;;;;;;;17.82;59.73;97665.13;5096268;28;20216;-91
2023/07/21 00:09:00;;;;;;;3.00;2.17;;;;;;;17.75;60.73;97667.59;5095443;28;20230;-91
2023/07/21 00:11:27;;;;;;;2.27;2.07;;;;;;;17.74;61.54;97665.91;5095362;28;20207;-91
2023/07/21 00:13:53;;;;;;;2.23;1.97;;;;;;;17.69;62.78;97662.88;5095514;28;20849;-91
2023/07/21 00:16:21;;;;;;;2.37;1.93;;;;;;;17.61;64.48;97667.41;5095640;28;20199;-92
2023/07/21 00:18:48;;;;;;;2.57;1.90;;;;;;;17.57;64.95;97661.53;5095658;28;20202;-91
2023/07/21 00:21:15;;;;;;;3.53;1.97;;;;;;;17.57;64.39;97655.34;5094661;28;20679;-90
2023/07/21 00:23:41;;;;;;;2.80;2.13;;;;;;;17.54;64.85;97664.50;5095365;28;20289;-90
2023/07/21 00:26:08;;;;;;;1.90;1.70;;;;;;;17.58;64.90;97663.22;5095330;28;20215;-91
2023/07/21 00:28:34;;;;;;;2.57;1.80;;;;;;;17.55;65.12;97660.84;5095937;28;20210;-91
2023/07/21 00:31:01;;;;;;;2.73;1.73;;;;;;;17.53;65.26;97662.84;5095106;28;20693;-91
2023/07/21 00:33:29;;;;;;;3.20;1.90;;;;;;;17.47;65.04;97658.13;5095846;28;20237;-90
2023/07/21 00:35:56;;;;;;;2.27;1.83;;;;;;;17.44;65.56;97658.44;5109065;28;20203;-90
2023/07/21 00:38:23;;;;;;;3.13;1.97;;;;;;;17.40;65.97;97661.59;5112438;28;20270;-89
2023/07/21 00:40:50;;;;;;;2.43;1.90;;;;;;;17.39;65.90;97655.44;5112042;28;20215;-90
2023/07/21 00:43:18;;;;;;;3.47;2.07;;;;;;;17.38;65.68;97661.75;5111076;28;20239;-90
2023/07/21 00:45:46;;;;;;;3.30;2.27;;;;;;;17.43;64.78;97655.97;5110660;28;20305;-90
2023/07/21 00:48:15;;;;;;;2.37;1.97;;;;;;;17.42;64.38;97651.59;5111002;28;20276;-89
2023/07/21 00:50:46;;;;;;;2.90;2.03;;;;;;;17.42;64.92;97654.25;5110772;28;20241;-90
2023/07/21 00:53:13;;;;;;;3.20;2.20;;;;;;;17.42;65.51;97655.09;5112016;28;20240;-90
2023/07/21 00:55:41;;;;;;;3.83;2.27;;;;;;;17.43;65.80;97651.44;5111409;28;20231;-91
2023/07/21 00:58:09;;;;;;;2.33;2.13;;;;;;;17.45;65.92;97654.81;5112925;28;20207;-91
2023/07/21 01:00:36;;;;;;;3.97;2.33;;;;;;;17.48;66.35;97649.13;5111200;28;20203;-90
2023/07/21 01:03:03;;;;;;;2.97;2.20;;;;;;;17.56;65.89;97646.47;5108960;28;20207;-91
2023/07/21 01:05:33;;;;;;;4.00;2.30;;;;;;;17.62;65.25;97639.66;5094305;28;20242;-91
2023/07/21 01:08:04;;;;;;;3.43;2.37;;;;;;;17.60;65.44;97637.16;5094134;28;20206;-85
2023/07/21 01:10:32;;;;;;;2.93;2.50;;;;;;;17.60;65.42;97637.16;5098680;28;20266;-94
2023/07/21 01:13:02;;;;;;;3.37;2.33;;;;;;;17.63;64.92;97644.00;5098486;28;20233;-95
2023/07/21 01:15:29;;;;;;;2.60;2.40;;;;;;;17.61;65.05;97638.00;5098178;28;20231;-95
2023/07/21 01:17:58;;;;;;;3.00;2.33;;;;;;;17.59;66.42;97645.31;5098735;28;20206;-94
2023/07/21 01:20:27;;;;;;;3.53;2.13;;;;;;;17.55;69.19;97652.81;5097575;28;20211;-94
2023/07/21 01:22:57;;;;;;;2.77;2.30;;;;;;;17.47;71.50;97651.94;5094849;28;20211;-94
2023/07/21 01:25:26;;;;;;;5.33;2.50;;;;;;;17.40;71.96;97645.56;5094428;28;20223;-94
2023/07/21 01:27:54;;;;;;;2.97;2.67;;;;;;;17.33;71.33;97639.16;5094892;28;20206;-94
2023/07/21 01:30:22;;;;;;;3.43;2.50;;;;;;;17.26;71.23;97633.59;5093768;28;20209;-93
2023/07/21 01:32:51;;;;;;;3.37;2.20;;;;;;;17.18;71.37;97636.25;5094483;28;20206;-93
2023/07/21 01:35:19;;;;;;;4.40;2.23;;;;;;;17.13;72.11;97629.72;5093958;28;20249;-93
2023/07/21 01:37:48;;;;;;;3.47;2.10;;;;;;;17.08;71.19;97624.81;5094198;28;20601;-92
2023/07/21 01:40:16;;;;;;;2.40;1.90;;;;;;;17.08;70.07;97626.69;5093941;28;20676;-92
2023/07/21 01:42:46;;;;;;;2.23;2.00;;;;;;;17.03;69.23;97621.81;5094058;28;20207;-93
2023/07/21 01:45:14;;;;;;;2.27;2.00;;;;;;;17.00;69.80;97619.47;5094034;28;20250;-94
2023/07/21 01:47:41;;;;;;;2.83;2.00;;;;;;;16.97;70.88;97621.59;5093266;28;20206;-92
2023/07/21 01:50:13;;;;;;;3.43;2.30;;;;;;;16.90;71.63;97620.56;5093979;28;20646;-93
2023/07/21 01:52:40;;;;;;;2.50;2.30;;;;;;;16.85;72.10;97622.88;5093975;28;20264;-93
2023/07/21 01:55:14;;;;;;;2.30;2.03;;;;;;;16.80;71.12;97610.00;5093677;28;20594;-93
2023/07/21 01:57:50;;;;;;;3.27;1.90;;;;;;;16.83;69.49;97607.00;5093716;28;20222;-93
2023/07/21 02:00:18;;;;;;;2.90;1.90;;;;;;;16.79;69.56;97605.66;5092989;28;20684;-93
2023/07/21 02:02:47;;;;;;;2.47;2.00;;;;;;;16.75;70.46;97606.09;5093628;28;20206;-93
2023/07/21 02:05:22;;;;;;;3.77;1.93;;;;;;;16.71;71.16;97607.44;5093418;28;20276;-94
2023/07/21 02:07:48;;;;;;;4.67;1.87;;;;;;;16.71;72.94;97616.25;5094171;28;20669;-94
2023/07/21 02:10:15;;;;;;;3.07;2.00;;;;;;;16.66;74.29;97613.25;5093343;28;20214;-93
2023/07/21 02:12:42;;;;;;;2.80;2.00;;;;;;;16.63;74.59;97613.53;5093737;28;20564;-94
2023/07/21 02:15:10;;;;;;;2.27;2.07;;;;;;;16.58;74.67;97609.69;5093048;28;20227;-94
2023/07/21 02:17:37;;;;;;;3.67;1.90;;;;;;;16.57;74.13;97605.34;5093056;28;20214;-93
2023/07/21 02:20:08;;;;;;;2.17;1.97;;;;;;;16.53;73.14;97598.63;5092927;28;20210;-94
2023/07/21 02:22:35;;;;;;;3.80;2.00;;;;;;;16.50;73.47;97598.91;5093358;28;20621;-93
2023/07/21 02:25:03;;;;;;;2.50;1.90;;;;;;;16.51;73.43;97598.78;5092893;28;20227;-93
2023/07/21 02:27:30;;;;;;;2.80;2.13;;;;;;;16.51;73.67;97598.78;5092842;28;20758;-93
2023/07/21 02:29:56;;;;;;;3.10;1.90;;;;;;;16.50;73.18;97596.25;5092523;28;20687;-93
2023/07/21 02:32:25;;;;;;;2.47;2.27;;;;;;;16.48;73.45;97599.09;5093034;28;20267;-93
2023/07/21 02:34:51;;;;;;;3.63;1.90;;;;;;;16.42;73.76;97594.38;5092862;28;20235;-94
2023/07/21 02:37:18;;;;;;;2.43;2.07;;;;;;;16.41;74.18;97603.34;5092795;28;20207;-93
2023/07/21 02:39:44;;;;;;;2.13;1.90;;;;;;;16.42;74.20;97602.38;5092813;28;20211;-93
2023/07/21 02:42:11;;;;;;;2.70;1.80;;;;;;;16.45;73.83;97601.25;5092920;28;20206;-93
2023/07/21 02:44:37;;;;;;;2.63;2.13;;;;;;;16.47;73.36;97597.41;5093255;28;20231;-93
2023/07/21 02:47:04;;;;;;;2.57;2.30;;;;;;;16.49;73.49;97595.44;5093021;28;20211;-95
2023/07/21 02:49:33;;;;;;;2.40;2.10;;;;;;;16.53;73.62;97602.13;5093173;28;20211;-94
2023/07/21 02:51:59;;;;;;;3.13;2.03;;;;;;;16.61;73.37;97602.19;5096335;28;20664;-93
2023/07/21 02:54:26;;;;;;;2.43;1.93;;;;;;;16.65;72.96;97592.88;5095812;28;20230;-93
2023/07/21 02:56:53;;;;;;;2.10;1.90;;;;;;;16.70;72.25;97582.56;5095895;28;20210;-94
2023/07/21 02:59:23;;;;;;;2.60;2.00;;;;;;;16.74;71.98;97575.94;5092130;28;20213;-94
2023/07/21 03:01:54;;;;;;;2.10;1.90;;;;;;;16.76;72.14;97570.44;5093969;28;20210;-93
2023/07/21 03:04:20;;;;;;;2.07;1.83;;;;;;;16.76;71.44;97581.94;5097401;28;20682;-94
2023/07/21 03:06:49;;;;;;;2.13;1.70;;;;;;;16.74;71.68;97578.59;5097084;28;20203;-94
2023/07/21 03:09:15;;;;;;;2.07;1.87;;;;;;;16.71;72.71;97578.91;5092710;28;20271;-94
2023/07/21 03:11:42;;;;;;;4.10;2.23;;;;;;;16.72;73.65;97588.59;5092874;28;20215;-93
2023/07/21 03:14:10;;;;;;;2.30;1.90;;;;;;;16.70;74.31;97587.09;5096733;28;20238;-93
2023/07/21 03:16:36;;;;;;;2.53;2.10;;;;;;;16.62;75.62;97590.53;5101750;28;20215;-93
2023/07/21 03:19:03;;;;;;;2.63;1.97;;;;;;;16.55;75.26;97594.81;5103154;28;20203;-93
2023/07/21 03:21:30;;;;;;;3.07;2.30;;;;;;;16.53;74.62;97586.09;5102525;28;20579;-94
2023/07/21 03:23:58;;;;;;;2.23;1.90;;;;;;;16.53;74.33;97585.28;5092696;28;20234;-94
2023/07/21 03:26:26;;;;;;;2.63;2.03;;;;;;;16.48;74.46;97588.44;5092476;28;20202;-93
2023/07/21 03:28:54;;;;;;;2.77;2.10;;;;;;;16.39;76.04;97588.53;5092819;28;20203;-93
2023/07/21 03:31:20;;;;;;;2.93;2.17;;;;;;;16.33;76.32;97589.09;5092264;28;20211;-93
2023/07/21 03:33:47;;;;;;;3.83;2.23;;;;;;;16.26;75.78;97599.53;5092395;28;20240;-91
2023/07/21 03:36:15;;;;;;;3.03;2.33;;;;;;;16.18;75.70;97594.16;5092130;28;20272;-93
2023/07/21 03:38:42;;;;;;;2.13;1.93;;;;;;;16.13;77.12;97599.09;5091935;28;20203;-93
2023/07/21 03:41:11;;;;;;;2.70;2.27;;;;;;;16.13;78.09;97599.09;5092009;28;20264;-94
2023/07/21 03:43:38;;;;;;;7.27;3.17;;;;;;;16.16;78.26;97598.78;5092191;28;20209;-93
2023/07/21 03:46:06;;;;;;;2.70;2.30;;;;;;;16.19;77.44;97593.16;5092103;28;20214;-93
2023/07/21 03:48:33;;;;;;;2.37;1.93;;;;;;;16.22;77.66;97592.00;5092244;28;20202;-94
2023/07/21 03:51:01;;;;;;;2.40;2.20;;;;;;;16.22;78.14;97586.69;5091853;28;20202;-94
2023/07/21 03:53:28;;;;;;;2.50;1.93;;;;;;;16.24;78.28;97585.53;5091777;28;20206;-93
2023/07/21 03:55:55;;;;;;;2.70;2.13;;;;;;;16.22;78.71;97587.50;5092154;28;20214;-95
2023/07/21 03:58:23;;;;;;;3.80;2.37;;;;;;;16.22;78.46;97582.16;5091862;28;20207;-94
2023/07/21 04:00:50;;;;;;;2.63;2.07;;;;;;;16.20;78.30;97568.16;5091296;28;20684;-95
2023/07/21 04:03:18;;;;;;;2.70;1.97;;;;;;;16.23;78.95;97583.88;5092010;28;20213;-94
2023/07/21 04:05:45;;;;;;;3.13;2.10;;;;;;;16.23;80.21;97578.53;5091571;28;20237;-94
2023/07/21 04:08:11;;;;;;;3.70;2.00;;;;;;;16.25;80.38;97586.34;5091852;28;20726;-95
2023/07/21 04:10:40;;;;;;;2.60;2.30;;;;;;;16.24;80.80;97569.53;5092746;28;20218;-94
2023/07/21 04:13:07;;;;;;;2.60;2.30;;;;;;;16.27;81.29;97569.22;5096132;28;20218;-94
2023/07/21 04:15:35;;;;;;;2.10;1.90;;;;;;;16.31;81.79;97575.91;5096859;28;20234;-94
2023/07/21 04:18:02;;;;;;;2.83;2.20;;;;;;;16.35;82.29;97571.13;5096569;28;20206;-94
2023/07/21 04:20:29;;;;;;;2.53;2.30;;;;;;;16.38;82.54;97574.34;5100381;28;20203;-94
2023/07/21 04:22:55;;;;;;;2.67;2.13;;;;;;;16.38;83.03;97569.00;5096809;28;20318;-94
2023/07/21 04:25:22;;;;;;;2.90;2.37;;;;;;;16.42;82.79;97573.03;5095649;28;20234;-94
2023/07/21 04:27:53;;;;;;;3.40;2.30;;;;;;;16.43;82.30;97561.38;5095650;28;20207;-94
2023/07/21 04:30:19;;;;;;;2.80;2.50;;;;;;;16.45;81.94;97562.06;5094889;28;20246;-94
2023/07/21 04:32:47;;;;;;;3.10;2.20;;;;;;;16.47;81.27;97565.38;5094991;28;20649;-93
2023/07/21 04:35:16;;;;;;;2.43;2.20;;;;;;;16.48;81.42;97569.75;5094911;28;20241;-93
2023/07/21 04:37:42;;;;;;;3.03;2.50;;;;;;;16.48;81.43;97571.56;5095437;28;20260;-94
2023/07/21 04:40:10;;;;;;;3.80;2.27;;;;;;;16.55;80.74;97577.94;5095210;28;20236;-93
2023/07/21 04:42:37;;;;;;;4.30;2.50;;;;;;;16.68;78.70;97573.88;5095358;28;20229;-94
2023/07/21 04:45:05;;;;;;;4.93;2.37;;;;;;;16.81;77.03;97573.44;5095301;28;20227;-94
2023/07/21 04:47:31;;;;;;;2.73;2.20;;;;;;;17.00;75.91;97568.72;5094665;28;20214;-94
2023/07/21 04:49:59;;;;;;;3.33;2.10;;;;;;;17.15;74.50;97560.97;5094542;28;20245;-94
2023/07/21 04:52:26;;;;;;;3.00;2.33;;;;;;;17.27;74.25;97559.69;5095426;28;20214;-94
2023/07/21 04:54:52;;;;;;;2.60;2.13;;;;;;;17.34;73.50;97560.69;5095297;28;20231;-94
2023/07/21 04:57:18;;;;;;;4.73;2.30;;;;;;;17.45;72.70;97563.97;5094746;28;20669;-94
2023/07/21 04:59:46;;;;;;;3.83;2.30;;;;;;;17.51;71.54;97546.44;5095224;28;20214;-94
2023/07/21 05:02:12;;;;;;;2.60;2.00;;;;;;;17.55;71.16;97548.59;5096095;28;20669;-94
2023/07/21 05:04:39;;;;;;;7.03;2.53;;;;;;;17.60;71.38;97554.31;5095864;28;20273;-94
2023/07/21 05:07:08;;;;;;;2.67;2.30;;;;;;;17.71;71.36;97564.69;5094573;28;20746;-93
2023/07/21 05:09:35;;;;;;;3.57;1.93;;;;;;;17.78;71.09;97563.03;5094173;28;20252;-93
2023/07/21 05:12:01;;;;;;;3.00;2.10;;;;;;;17.79;71.44;97556.69;5094001;28;20211;-93
2023/07/21 05:14:28;;;;;;;3.07;2.30;;;;;;;17.84;72.33;97565.06;5093669;28;20230;-93
2023/07/21 05:16:55;;;;;;;4.23;2.47;;;;;;;17.88;72.57;97566.41;5094183;28;20263;-92
2023/07/21 05:19:21;;;;;;;2.53;1.87;;;;;;;17.93;72.44;97561.38;5093035;28;20215;-93
2023/07/21 05:21:48;;;;;;;2.77;2.27;;;;;;;17.94;72.65;97557.72;5093336;28;20207;-93
2023/07/21 05:24:15;;;;;;;3.37;2.30;;;;;;;17.99;72.46;97560.72;5093734;28;20233;-92
2023/07/21 05:26:42;;;;;;;4.33;2.13;;;;;;;18.01;72.38;97568.56;5093905;28;20225;-93
2023/07/21 05:29:08;;;;;;;2.90;2.20;;;;;;;18.07;72.19;97570.59;5093207;28;20221;-93
2023/07/21 05:31:35;;;;;;;3.63;2.60;;;;;;;18.13;71.52;97569.94;5093671;28;20207;-87
2023/07/21 05:34:02;;;;;;;2.60;2.17;;;;;;;18.24;71.72;97569.59;5092892;28;20234;-88
2023/07/21 05:36:28;;;;;;;3.03;2.20;;;;;;;18.30;71.51;97560.91;5093235;28;20214;-88
2023/07/21 05:38:55;;;;;;;2.70;2.30;;;;;;;18.33;71.43;97556.09;5092994;28;20207;-88
2023/07/21 05:41:23;;;;;;;2.73;2.30;;;;;;;18.39;71.57;97559.91;5092398;28;20229;-87
2023/07/21 05:43:49;;;;;;;2.90;2.50;;;;;;;18.41;71.62;97556.06;5092934;28;20749;-85
2023/07/21 05:46:16;;;;;;;4.10;2.50;;;;;;;18.45;71.72;97554.75;5093299;28;20211;-84
2023/07/21 05:48:42;;;;;;;4.13;2.40;;;;;;;18.50;71.41;97551.56;5093472;28;20210;-81
2023/07/21 05:51:12;;;;;;;2.77;2.43;;;;;;;18.55;70.61;97552.75;5093201;28;20211;-84
2023/07/21 05:53:39;;;;;;;3.17;2.77;;;;;;;18.56;69.92;97541.03;5093209;28;20206;-87
2023/07/21 05:56:06;;;;;;;3.87;3.07;;;;;;;18.62;69.03;97551.06;5092709;28;20309;-84
2023/07/21 05:58:35;;;;;;;3.80;2.70;;;;;;;18.66;68.89;97547.00;5092541;28;20302;-85
2023/07/21 06:01:01;;;;;;;3.77;2.40;;;;;;;18.71;68.82;97538.50;5091814;28;20251;-84
2023/07/21 06:03:28;;;;;;;3.57;2.70;;;;;;;18.78;68.32;97537.63;5092434;28;20202;-85
2023/07/21 06:05:54;;;;;;;4.10;2.80;;;;;;;18.84;68.33;97536.13;5092299;28;20208;-84
2023/07/21 06:08:22;;;;;;;3.80;2.90;;;;;;;18.97;67.85;97539.91;5095994;28;20207;-84
2023/07/21 06:10:48;;;;;;;4.57;3.13;;;;;;;19.03;67.61;97539.22;5098907;28;20213;-84
2023/07/21 06:13:15;;;;;;;5.20;2.60;;;;;;;19.19;67.37;97541.84;5099584;28;20673;-85
2023/07/21 06:15:42;;;;;;;4.20;2.87;;;;;;;19.34;66.84;97542.84;5101679;28;20714;-84
2023/07/21 06:18:09;;;;;;;5.13;2.20;;;;;;;19.48;66.14;97536.72;5099782;28;20215;-84
2023/07/21 06:20:36;;;;;;;6.33;2.90;;;;;;;19.78;65.57;97530.53;5098630;28;20203;-84
2023/07/21 06:23:03;;;;;;;5.43;2.77;;;;;;;20.08;63.22;97521.63;5092980;28;20213;-84
2023/07/21 06:25:29;;;;;;;6.50;2.70;;;;;;;20.26;63.40;97530.19;5091766;28;20227;-85
2023/07/21 06:27:57;;;;;;;6.17;3.00;;;;;;;20.48;62.52;97537.38;5091851;28;20697;-86
2023/07/21 06:30:23;;;;;;;4.40;2.70;;;;;;;20.58;61.30;97518.31;5091269;28;20565;-83
2023/07/21 06:32:51;;;;;;;5.93;3.47;;;;;;;20.62;59.91;97519.63;5092196;28;20206;-80
2023/07/21 06:35:18;;;;;;;5.00;3.10;;;;;;;20.72;58.98;97514.84;5091920;28;20230;-79
2023/07/21 06:37:43;;;;;;;4.47;2.80;;;;;;;20.95;58.46;97516.44;5091815;28;20211;-78
2023/07/21 06:40:11;;;;;;;3.40;2.67;;;;;;;21.37;56.48;97519.28;5091264;28;20226;-80
2023/07/21 06:42:38;;;;;;;5.60;3.22;;;;;;;21.76;55.52;97522.47;5087123;28;20512;-81
2023/07/21 06:45:09;;;;;;;3.33;2.63;;;;;;;21.81;55.32;97529.97;5091017;28;20314;-81
2023/07/21 06:47:36;;;;;;;4.37;2.63;;;;;;;21.72;55.89;97536.50;5091309;28;20199;-81
2023/07/21 06:50:04;;;;;;;3.53;3.03;;;;;;;21.62;54.73;97527.84;5090037;28;20213;-83
2023/07/21 06:52:31;;;;;;;4.70;2.70;;;;;;;21.53;53.87;97511.00;5090777;28;20207;-83
2023/07/21 06:54:58;;;;;;;3.83;2.50;;;;;;;21.32;52.82;97523.53;5090685;28;20230;-81
2023/07/21 06:57:25;;;;;;;4.27;2.53;;;;;;;21.31;52.10;97538.84;5092122;28;20206;-80
2023/07/21 06:59:52;;;;;;;3.13;2.47;;;;;;;21.15;52.39;97533.66;5091116;28;20203;-80
2023/07/21 07:02:18;;;;;;;6.03;2.30;;;;;;;21.45;51.46;97529.94;5091877;28;20552;-80
2023/07/21 07:04:47;;;;;;;2.83;2.30;;;;;;;22.09;49.50;97518.28;5091780;28;20636;-80
2023/07/21 07:07:15;;;;;;;3.23;2.17;;;;;;;22.21;48.39;97524.81;5091782;28;20260;-80
2023/07/21 07:09:42;;;;;;;1.90;1.67;;;;;;;22.12;46.85;97517.06;5090934;28;20211;-81
2023/07/21 07:12:09;;;;;;;3.90;1.57;;;;;;;21.84;47.98;97527.75;5091564;28;20207;-81
2023/07/21 07:14:36;;;;;;;4.70;1.70;;;;;;;21.73;48.41;97538.16;5091270;28;20234;-81
2023/07/21 07:17:03;;;;;;;1.90;1.77;;;;;;;21.72;47.74;97529.28;5091367;28;20313;-81
2023/07/21 07:19:29;;;;;;;3.20;1.97;;;;;;;21.71;48.17;97535.66;5090445;28;20672;-78
2023/07/21 07:21:56;;;;;;;2.40;1.70;;;;;;;21.69;48.28;97543.09;5091501;28;20206;-78
2023/07/21 07:24:24;;;;;;;3.77;1.70;;;;;;;21.82;48.48;97542.41;5091589;28;20237;-78
2023/07/21 07:26:51;;;;;;;5.23;2.07;;;;;;;22.07;48.64;97544.53;5091407;28;20215;-78
2023/07/21 07:29:20;;;;;;;3.47;1.63;;;;;;;22.32;47.73;97537.72;5090610;28;20632;-76
2023/07/21 07:31:47;;;;;;;2.73;1.77;;;;;;;22.57;47.29;97539.06;5090961;28;20203;-77
2023/07/21 07:34:13;;;;;;;3.70;1.73;;;;;;;22.76;47.03;97541.06;5090997;28;20253;-77
2023/07/21 07:36:40;;;;;;;2.30;1.70;;;;;;;22.87;46.07;97524.31;5091378;28;20227;-78
2023/07/21 07:39:07;;;;;;;2.67;1.50;;;;;;;22.91;45.89;97525.59;5090540;28;20293;-78
2023/07/21 07:41:34;;;;;;;2.10;1.73;;;;;;;22.88;46.03;97526.00;5091162;28;20221;-78
2023/07/21 07:44:01;;;;;;;2.23;1.83;;;;;;;22.85;47.06;97537.16;5091206;28;20238;-79
2023/07/21 07:46:27;;;;;;;2.43;1.60;;;;;;;22.76;46.56;97526.75;5093870;28;20206;-78
2023/07/21 07:48:54;;;;;;;3.93;1.77;;;;;;;22.60;46.49;97527.88;5095465;28;20211;-78
2023/07/21 07:51:20;;;;;;;2.00;1.80;;;;;;;22.36;47.26;97538.22;5094486;28;20229;-78
2023/07/21 07:53:47;;;;;;;2.83;1.80;;;;;;;22.34;47.74;97541.09;5095251;28;20243;-79
2023/07/21 07:56:15;;;;;;;4.10;2.03;;;;;;;22.41;47.04;97547.34;5094906;28;20713;-78
2023/07/21 07:58:43;;;;;;;3.07;2.03;;;;;;;22.33;47.12;97552.88;5095186;28;20207;-79
2023/07/21 08:01:12;;;;;;;2.57;2.07;;;;;;;22.27;47.81;97553.66;5094195;28;20211;-77
2023/07/21 08:03:43;;;;;;;3.53;1.80;;;;;;;22.27;47.84;97552.81;5095322;28;20206;-78
2023/07/21 08:06:11;;;;;;;3.17;1.87;;;;;;;22.23;47.23;97551.53;5094675;28;20210;-78
2023/07/21 08:08:37;;;;;;;2.50;1.83;;;;;;;22.28;47.28;97555.31;5095064;28;20268;-78
2023/07/21 08:11:04;;;;;;;2.23;2.00;;;;;;;22.34;46.80;97549.16;5093978;28;20207;-78
2023/07/21 08:13:31;;;;;;;3.87;1.70;;;;;;;22.66;47.12;97559.41;5094626;28;20203;-79
2023/07/21 08:15:59;;;;;;;2.63;1.80;;;;;;;23.10;46.11;97551.03;5094732;28;20234;-79
2023/07/21 08:18:25;;;;;;;3.13;1.60;;;;;;;23.44;44.49;97545.63;5095022;28;20215;-78
2023/07/21 08:20:52;;;;;;;2.73;1.50;;;;;;;23.73;43.48;97537.25;5093735;28;20219;-78
2023/07/21 08:23:18;;;;;;;3.53;1.50;;;;;;;23.89;43.02;97529.66;5094590;28;20210;-79
2023/07/21 08:25:45;;;;;;;2.10;1.50;;;;;;;24.17;42.84;97519.56;5094336;28;20218;-78
2023/07/21 08:28:12;;;;;;;2.80;1.50;;;;;;;24.27;41.95;97519.97;5094444;28;20203;-77
2023/07/21 08:30:38;;;;;;;3.73;1.40;;;;;;;24.32;41.40;97522.88;5093707;28;20207;-80
2023/07/21 08:33:06;;;;;;;2.83;1.60;;;;;;;24.33;42.65;97529.94;5094452;28;20206;-81
2023/07/21 08:35:33;;;;;;;2.93;1.60;;;;;;;24.18;41.56;97523.06;5093491;28;20234;-80
2023/07/21 08:37:59;;;;;;;2.87;1.67;;;;;;;24.05;41.99;97533.84;5094053;28;20206;-79
2023/07/21 08:40:26;;;;;;;4.07;1.50;;;;;;;23.92;40.64;97521.19;5092976;28;20210;-80
2023/07/21 08:42:52;;;;;;;2.50;1.60;;;;;;;24.00;39.90;97523.69;5094111;28;20207;-79
2023/07/21 08:45:21;;;;;;;3.63;1.47;;;;;;;23.88;40.24;97524.47;5093797;28;20231;-80
2023/07/21 08:47:48;;;;;;;4.13;1.60;;;;;;;23.78;41.15;97530.22;5093986;28;20214;-80
2023/07/21 08:50:19;;;;;;;2.47;1.50;;;;;;;23.80;40.62;97522.78;5093196;28;20210;-82
2023/07/21 08:52:46;;;;;;;2.73;1.33;;;;;;;23.95;39.33;97520.75;5092589;28;20231;-80
2023/07/21 08:55:13;;;;;;;1.83;1.30;;;;;;;24.15;39.51;97520.81;5091039;28;20241;-81
2023/07/21 08:57:39;;;;;;;3.90;1.30;;;;;;;24.21;39.92;97528.09;5091704;28;20221;-81
2023/07/21 09:00:10;;;;;;;4.00;1.37;;;;;;;24.34;40.42;97531.63;5092381;28;20647;-85
2023/07/21 09:02:41;;;;;;;4.10;1.47;;;;;;;24.65;38.64;97528.34;5091748;28;20592;-91
2023/07/21 09:05:08;;;;;;;2.70;1.23;;;;;;;24.98;38.50;97519.16;5094042;28;20241;-91
2023/07/21 09:07:41;;;;;;;2.17;1.30;;;;;;;25.35;37.97;97526.59;5092854;28;20641;-91
2023/07/21 09:10:10;;;;;;;3.43;1.20;;;;;;;25.57;37.46;97530.69;5091470;28;20215;-86
2023/07/21 09:12:37;;;;;;;2.47;1.20;;;;;;;25.74;36.66;97528.31;5092755;28;20676;-89
2023/07/21 09:15:08;;;;;;;3.17;1.40;;;;;;;25.52;36.52;97527.78;5092888;28;20227;-87
2023/07/21 09:17:35;;;;;;;2.50;1.40;;;;;;;25.23;37.14;97528.25;5091981;28;20348;-88
2023/07/21 09:20:06;;;;;;;3.73;1.30;;;;;;;25.23;38.64;97528.25;5091681;28;20677;-87
2023/07/21 09:22:33;;;;;;;1.02;0.90;;;;;;;25.22;38.18;97531.16;5091930;28;20320;-88
2023/07/21 09:25:01;;;;;;;2.10;1.37;;;;;;;25.22;37.15;97525.75;5092097;28;20231;-89
2023/07/21 09:27:27;;;;;;;1.55;1.20;;;;;;;25.35;37.75;97531.19;5092685;28;20206;-89
2023/07/21 09:30:00;;;;;;;1.80;1.10;;;;;;;25.34;36.81;97522.22;5091532;28;20222;-85
2023/07/21 09:32:26;;;;;;;2.20;1.50;;;;;;;25.33;35.99;97517.88;5091591;28;20232;-82
2023/07/21 09:34:55;;;;;;;1.40;1.30;;;;;;;25.32;37.70;97540.56;5100945;22;20223;-76
2023/07/21 09:37:22;;;;;;;1.40;1.30;;;;;;;25.46;37.52;97536.75;5071950;28;20223;-75
2023/07/21 09:39:52;;;;;;;1.70;1.30;;;;;;;25.42;36.16;97526.59;5070930;28;20203;-76
2023/07/21 09:42:23;;;;;;;1.55;1.10;;;;;;;25.57;36.33;97519.88;5072666;28;20211;-76
2023/07/21 09:44:50;;;;;;;2.53;1.38;;;;;;;25.50;36.89;97527.19;5072785;28;20235;-75
2023/07/21 09:47:17;;;;;;;3.70;1.48;;;;;;;25.37;36.82;97537.22;5072536;28;20200;-76
2023/07/21 09:49:43;;;;;;;3.85;1.20;;;;;;;25.21;36.82;97522.25;5071849;28;20598;-76
2023/07/21 09:52:15;;;;;;;1.50;1.40;;;;;;;25.36;36.97;97522.84;5072393;28;20214;-76
2023/07/21 09:54:44;;;;;;;1.60;1.33;;;;;;;25.43;37.27;97531.75;5072262;28;20238;-76
2023/07/21 09:57:11;;;;;;;2.17;1.57;;;;;;;25.27;37.30;97528.69;5072154;28;20638;-79
2023/07/21 09:59:44;;;;;;;3.30;1.50;;;;;;;25.15;37.40;97523.09;5071659;28;20208;-76
2023/07/21 10:02:12;;;;;;;1.40;1.30;;;;;;;25.04;36.86;97510.22;5072258;28;20241;-75
2023/07/21 10:04:39;;;;;;;2.07;1.33;;;;;;;24.89;37.73;97509.63;5072095;28;20231;-78
2023/07/21 10:07:07;;;;;;;1.80;1.55;;;;;;;24.85;38.28;97516.47;5071976;28;20207;-77
2023/07/21 10:09:36;;;;;;;2.03;1.53;;;;;;;24.70;38.88;97510.44;5070930;28;20211;-77
2023/07/21 10:12:09;;;;;;;1.70;1.60;;;;;;;24.58;39.40;97512.16;5072146;28;20214;-74
2023/07/21 10:14:39;;;;;;;2.05;1.40;;;;;;;24.66;39.67;97520.03;5072233;28;20682;-74
2023/07/21 10:17:07;;;;;;;2.23;1.63;;;;;;;24.67;38.21;97499.22;5071915;28;20598;-75
2023/07/21 10:19:40;;;;;;;1.60;1.43;;;;;;;24.53;38.60;97493.00;5071147;28;20219;-75
2023/07/21 10:22:10;;;;;;;2.43;1.50;;;;;;;24.47;39.58;97501.09;5071576;28;20211;-75
2023/07/21 10:24:43;;;;;;;2.17;1.67;;;;;;;24.53;38.54;97492.16;5071597;28;20231;-75
2023/07/21 10:27:20;;;;;;;1.70;1.50;;;;;;;24.56;37.54;97492.56;5071809;28;20207;-73
2023/07/21 10:29:51;;;;;;;2.63;1.35;;;;;;;24.42;37.60;97487.38;5070939;28;20211;-75
2023/07/21 10:32:19;;;;;;;2.13;1.30;;;;;;;24.54;37.74;97493.81;5071611;28;20673;-75
2023/07/21 10:34:46;;;;;;;3.50;1.47;;;;;;;24.51;37.70;97489.66;5071465;28;20729;-75
2023/07/21 10:37:13;;;;;;;1.50;1.40;;;;;;;24.53;38.03;97493.00;5071322;28;20289;-74
2023/07/21 10:39:42;;;;;;;1.37;1.20;;;;;;;24.80;38.40;97505.47;5070671;28;20211;-77
2023/07/21 10:42:10;;;;;;;2.30;1.40;;;;;;;25.02;38.08;97508.75;5071542;28;20229;-75
2023/07/21 10:44:38;;;;;;;2.15;1.45;;;;;;;25.29;37.03;97508.50;5071381;28;20227;-77
2023/07/21 10:47:11;;;;;;;3.60;1.45;;;;;;;25.36;37.26;97505.78;5071241;28;20211;-76
2023/07/21 10:49:38;;;;;;;2.33;1.42;;;;;;;25.41;36.56;97481.63;5070870;28;20208;-74
2023/07/21 10:52:05;;;;;;;2.60;1.55;;;;;;;25.53;36.30;97485.34;5071234;28;20211;-75
2023/07/21 10:54:32;;;;;;;1.50;1.40;;;;;;;25.56;36.32;97491.16;5071085;28;20223;-75
2023/07/21 10:56:59;;;;;;;2.05;1.38;;;;;;;25.56;35.90;97488.44;5071095;28;20228;-74
2023/07/21 10:59:26;;;;;;;1.73;1.33;;;;;;;25.47;35.84;97492.41;5070341;28;20218;-77
2023/07/21 11:01:54;;;;;;;1.38;1.27;;;;;;;25.54;36.39;97498.63;5071390;28;20214;-75
2023/07/21 11:04:23;;;;;;;1.60;1.30;;;;;;;25.48;36.20;97496.78;5071175;28;20231;-75
2023/07/21 11:06:52;;;;;;;2.97;1.52;;;;;;;25.45;36.53;97504.50;5071192;28;20211;-75
2023/07/21 11:09:19;;;;;;;2.57;1.57;;;;;;;25.36;36.36;97500.38;5070501;28;20637;-75
2023/07/21 11:11:48;;;;;;;1.27;1.10;;;;;;;25.38;37.10;97507.25;5071071;28;20673;-73
2023/07/21 11:14:16;;;;;;;1.57;1.40;;;;;;;25.42;36.72;97504.94;5070798;28;20229;-77
2023/07/21 11:16:43;;;;;;;1.50;1.40;;;;;;;25.41;36.14;97504.09;5071198;28;20383;-75
2023/07/21 11:19:10;;;;;;;3.13;1.30;;;;;;;25.43;36.65;97506.59;5070128;28;20211;-74
2023/07/21 11:21:39;;;;;;;2.40;1.43;;;;;;;25.47;37.12;97516.78;5070419;28;20207;-75
2023/07/21 11:24:08;;;;;;;1.90;1.23;;;;;;;25.58;35.91;97508.00;5070870;28;20212;-75
2023/07/21 11:26:34;;;;;;;1.77;1.43;;;;;;;25.51;36.64;97501.78;5070932;28;20646;-75
2023/07/21 11:29:05;;;;;;;1.92;1.40;;;;;;;25.41;36.66;97508.69;5070844;28;20212;-74
2023/07/21 11:31:33;;;;;;;1.90;1.40;;;;;;;25.51;36.27;97499.06;5070907;28;20218;-74
2023/07/21 11:34:01;;;;;;;1.60;1.30;;;;;;;25.68;36.59;97502.97;5070806;28;20219;-74
2023/07/21 11:36:31;;;;;;;2.80;1.63;;;;;;;25.61;36.62;97496.72;5070716;28;20254;-74